Aeroporto :
LOGIN :

Iscrizione | Disclaimer

   EN    FR    IT 

 










Sommario :    VFR   VFR Marginale   IFR   IFR Intensivo   IFR Molto Intensivo
Visibilità : 
Base nubi : 
>= 8 km
>= 3000ft
5 / 8 km
1000 / 3000 ft
1500m / 5 km
500 / 1000 ft
800 / 1500m
200 / 500 ft
< 800m
< 200 ft
Simboli :   Temporali  Nebbia  Neve Forte  Precipitazioni Forti  Vento > 20 kt
SIGMETs :   Varie  Temporali  Ghiacco  Turbolenza  Onda orograficha  Ceneri Vulcaniche






- Altitudine del aeroporto : 1115 ft
- Codice IATA : GRZ


LOWG - Graz

ULTIMO METAR :
  • 050420Z 05004KT 9999 RA BKN030 BKN050 14/13 Q0997 TEMPO -RA

METARs OBSOLETI :
  • 050350Z VRB02KT 9999 BKN030 BKN070 14/13 Q0997 TEMPO FM0500 RA
  • 050320Z AUTO 01004KT 9999 -SHRA FEW019 SCT022 BKN030 14/13 Q0997
  • 050250Z AUTO 05003KT 9999 -SHRA FEW032 BKN034 14/13 Q0997
  • 050220Z AUTO VRB01KT 9999 -RA FEW020 SCT034 BKN038 14/12 Q0996
  • 050150Z AUTO 19005KT 160V220 9000 -SHRA FEW017 SCT034 BKN042 15/12 Q0997

TAF TAF LOWG
Valido dal 05 a 00 ore il 06 a 00 ore UTC


042315Z 0500/0524 VRB06KT 9999 -RA SCT060 TX17/0516Z TN12/0524Z
TEMPO 0500/0508 35007KT 4000 RA BKN014
BECMG 0508/0510 NSW
TEMPO 0508/0513 -RA



MetMap, La meteo Aeronautica in un colpo d'occhio ! - Copyright ORBIFLY Dicembre 2007 - Disclaimer

ORBIFLY MET'MAP TEAM :

Programmazione e sviluppo : Alexandra Zaïnal
Concezione : Baudouin d'Aumeries
Aiuto per la programmazione : Marc-Olivier Méhu
Supporto tecnico e logistico : Manuel Goepfert
Aiuto per la traduzione : Arnaldo La Scala

Contatto : metmap@orbifly.com




FONTI E CREDITI :

   NOAA